Time;durP1;ratioP1;P1;durP2;ratioP2;P2;SDS_P1;SDS_P2;PMS_P1;PMS_P2;Temp;Humidity;BMP_temperature;BMP_pressure;BME280_temperature;BME280_humidity;BME280_pressure;Samples;Min_cycle;Max_cycle;Signal;HPM_P1;HPM_P2
2021/06/04 00:01:09;;;;;;;5.72;2.22;;;14.70;99.90;;;;;;5094417;28;20104;-83
2021/06/04 00:03:36;;;;;;;4.75;2.38;;;14.70;99.90;;;;;;5095016;28;20048;-83
2021/06/04 00:06:02;;;;;;;6.28;2.45;;;14.70;99.90;;;;;;5095005;28;20086;-84
2021/06/04 00:08:29;;;;;;;6.78;2.75;;;14.70;99.90;;;;;;5094802;28;20044;-84
2021/06/04 00:11:02;;;;;;;8.05;2.72;;;14.70;99.90;;;;;;5095079;28;20127;-84
2021/06/04 00:13:30;;;;;;;4.07;2.28;;;14.70;99.90;;;;;;5094812;28;20438;-83
2021/06/04 00:16:01;;;;;;;10.20;3.42;;;14.70;99.90;;;;;;5094960;28;20052;-84
2021/06/04 00:18:29;;;;;;;9.35;4.47;;;14.60;99.90;;;;;;5094899;28;20059;-84
2021/06/04 00:20:56;;;;;;;11.07;4.00;;;14.60;99.90;;;;;;5094826;28;20048;-84
2021/06/04 00:23:23;;;;;;;6.95;4.20;;;14.60;99.90;;;;;;5094706;28;20062;-84
2021/06/04 00:25:49;;;;;;;9.52;2.92;;;14.60;99.90;;;;;;5094692;28;20397;-84
2021/06/04 00:28:16;;;;;;;5.43;2.83;;;14.60;99.90;;;;;;5094811;28;20059;-83
2021/06/04 00:30:42;;;;;;;3.72;2.25;;;14.60;99.90;;;;;;5094652;28;20052;-84
2021/06/04 00:33:09;;;;;;;6.53;2.20;;;14.50;99.90;;;;;;5094730;28;20048;-83
2021/06/04 00:35:38;;;;;;;7.00;1.70;;;14.50;99.90;;;;;;5094582;28;20048;-84
2021/06/04 00:38:05;;;;;;;3.63;2.13;;;14.40;99.90;;;;;;5094776;28;20044;-83
2021/06/04 00:40:34;;;;;;;3.33;0.85;;;14.40;99.90;;;;;;5094668;28;20070;-83
2021/06/04 00:43:01;;;;;;;3.10;1.25;;;14.50;99.90;;;;;;5094470;28;20044;-84
2021/06/04 00:45:29;;;;;;;3.47;1.70;;;14.50;99.90;;;;;;5094427;28;20060;-83
2021/06/04 00:47:55;;;;;;;6.97;1.77;;;14.50;99.90;;;;;;5094559;28;20084;-83
2021/06/04 00:50:25;;;;;;;2.38;1.35;;;14.40;99.90;;;;;;5094814;28;20058;-83
2021/06/04 00:52:53;;;;;;;2.78;0.90;;;14.40;99.90;;;;;;5094686;28;20059;-83
2021/06/04 00:55:20;;;;;;;3.33;1.63;;;14.50;99.90;;;;;;5094579;28;20048;-83
2021/06/04 00:57:47;;;;;;;2.97;0.80;;;14.40;99.90;;;;;;5094318;28;20392;-83
2021/06/04 01:00:18;;;;;;;6.30;1.15;;;14.40;99.90;;;;;;5094682;28;20433;-83
2021/06/04 01:02:44;;;;;;;2.10;0.63;;;14.30;99.90;;;;;;5094311;28;20456;-83
2021/06/04 01:05:12;;;;;;;2.53;1.15;;;14.30;99.90;;;;;;5094494;28;20040;-83
2021/06/04 01:07:40;;;;;;;1.95;0.52;;;14.20;99.90;;;;;;5094303;28;20124;-83
2021/06/04 01:10:16;;;;;;;9.38;0.80;;;14.20;99.90;;;;;;5094289;28;20058;-83
2021/06/04 01:12:54;;;;;;;1.85;0.82;;;14.20;99.90;;;;;;5095341;28;20059;-83
2021/06/04 01:15:43;;;;;;;2.92;1.02;;;14.10;99.90;;;;;;5097993;28;20438;-83
2021/06/04 01:18:11;;;;;;;3.25;0.70;;;14.00;99.90;;;;;;5098055;28;20371;-83
2021/06/04 01:20:40;;;;;;;3.33;0.95;;;14.00;99.90;;;;;;5097938;28;20448;-83
2021/06/04 01:23:45;;;;;;;4.03;0.60;;;14.10;99.90;;;;;;5097891;28;20055;-83
2021/06/04 01:26:15;;;;;;;3.22;0.82;;;14.00;99.90;;;;;;5070289;28;20052;-83
2021/06/04 01:28:45;;;;;;;2.63;0.43;;;14.00;99.90;;;;;;5097901;28;20056;-82
2021/06/04 01:31:13;;;;;;;1.92;0.40;;;14.00;99.90;;;;;;5097792;28;20066;-83
2021/06/04 01:33:44;;;;;;;1.55;0.63;;;14.00;99.90;;;;;;5097644;28;20058;-83
2021/06/04 01:36:10;;;;;;;0.65;0.50;;;14.00;99.90;;;;;;5097641;28;20058;-83
2021/06/04 01:38:39;;;;;;;4.28;0.65;;;14.00;99.90;;;;;;5097607;28;20044;-83
2021/06/04 01:41:06;;;;;;;1.25;0.50;;;14.00;99.90;;;;;;5097535;28;20048;-83
2021/06/04 01:43:36;;;;;;;2.03;1.00;;;13.90;99.90;;;;;;5097537;28;20048;-83
2021/06/04 01:46:04;;;;;;;3.33;0.70;;;13.90;99.90;;;;;;5097553;28;20051;-83
2021/06/04 01:48:34;;;;;;;2.03;0.70;;;13.90;99.90;;;;;;5097347;28;20078;-83
2021/06/04 01:51:03;;;;;;;4.90;1.27;;;13.80;99.90;;;;;;5097333;28;20052;-83
2021/06/04 01:53:32;;;;;;;2.33;0.85;;;13.80;99.90;;;;;;5097564;28;20100;-83
2021/06/04 01:56:00;;;;;;;4.57;0.85;;;13.70;99.90;;;;;;5097332;28;20048;-83
2021/06/04 01:58:29;;;;;;;1.52;1.10;;;13.60;99.90;;;;;;5097170;28;20157;-82
2021/06/04 02:01:01;;;;;;;1.77;1.27;;;13.60;99.90;;;;;;5097146;28;20483;-83
2021/06/04 02:03:27;;;;;;;2.45;0.70;;;13.50;99.90;;;;;;5097047;28;20513;-83
2021/06/04 02:05:55;;;;;;;2.05;0.70;;;13.50;99.90;;;;;;5097266;28;20048;-82
2021/06/04 02:08:23;;;;;;;2.42;0.82;;;13.50;99.90;;;;;;5097171;28;20052;-83
2021/06/04 02:10:50;;;;;;;2.47;0.55;;;13.50;99.90;;;;;;5097108;28;20052;-83
2021/06/04 02:13:17;;;;;;;1.60;0.93;;;13.40;99.90;;;;;;5097110;28;20040;-83
2021/06/04 02:15:45;;;;;;;1.80;0.75;;;13.40;99.90;;;;;;5096974;28;20052;-82
2021/06/04 02:18:18;;;;;;;6.38;1.02;;;13.40;99.90;;;;;;5096563;28;20056;-83
2021/06/04 02:20:48;;;;;;;2.40;0.55;;;13.30;99.90;;;;;;5096778;28;20101;-83
2021/06/04 02:23:16;;;;;;;1.50;0.70;;;13.20;99.90;;;;;;5096820;28;20067;-83
2021/06/04 02:25:48;;;;;;;3.03;0.90;;;13.20;99.90;;;;;;5096075;28;20078;-82
2021/06/04 02:28:26;;;;;;;3.35;0.90;;;13.10;99.90;;;;;;5096640;28;20501;-83
2021/06/04 02:30:57;;;;;;;3.83;0.80;;;13.10;99.90;;;;;;5096614;28;20054;-83
2021/06/04 02:33:26;;;;;;;5.15;1.08;;;13.00;99.90;;;;;;5096717;28;20058;-83
2021/06/04 02:35:55;;;;;;;3.05;0.70;;;13.00;99.90;;;;;;5096592;28;20052;-83
2021/06/04 02:38:23;;;;;;;2.42;0.73;;;12.90;99.90;;;;;;5096461;28;20048;-83
2021/06/04 02:40:52;;;;;;;2.55;0.65;;;12.90;99.90;;;;;;5096503;28;20128;-84
2021/06/04 02:43:20;;;;;;;2.90;1.30;;;12.80;99.90;;;;;;5096387;28;20078;-83
2021/06/04 02:45:48;;;;;;;2.90;1.15;;;12.70;99.90;;;;;;5096263;28;20044;-83
2021/06/04 02:48:17;;;;;;;3.17;0.93;;;12.60;99.90;;;;;;5096324;28;20054;-83
2021/06/04 02:50:47;;;;;;;1.15;0.77;;;12.50;99.90;;;;;;5096368;28;20052;-83
2021/06/04 02:53:23;;;;;;;1.77;0.63;;;12.50;99.90;;;;;;5096189;28;20055;-83
2021/06/04 02:56:09;;;;;;;3.38;1.05;;;12.40;99.90;;;;;;5096115;28;20056;-83
2021/06/04 02:58:36;;;;;;;2.30;0.98;;;12.30;99.90;;;;;;5095956;28;20132;-82
2021/06/04 03:01:02;;;;;;;2.10;1.05;;;12.30;99.90;;;;;;5096010;28;20052;-83
2021/06/04 03:03:29;;;;;;;1.90;0.98;;;12.30;99.90;;;;;;5096007;28;20112;-83
2021/06/04 03:05:57;;;;;;;4.07;1.00;;;12.20;99.90;;;;;;5095896;28;20044;-81
2021/06/04 03:08:25;;;;;;;3.85;0.70;;;12.10;99.90;;;;;;5095903;28;20058;-83
2021/06/04 03:10:52;;;;;;;2.92;0.88;;;12.10;99.90;;;;;;5096017;28;20048;-83
2021/06/04 03:13:20;;;;;;;1.88;0.80;;;12.00;99.90;;;;;;5095832;28;20127;-83
2021/06/04 03:15:48;;;;;;;6.05;1.00;;;12.00;99.90;;;;;;5095793;28;20562;-83
2021/06/04 03:18:16;;;;;;;2.47;0.70;;;11.90;99.90;;;;;;5095613;28;20051;-83
2021/06/04 03:20:44;;;;;;;4.00;1.15;;;11.90;99.90;;;;;;5095529;28;20066;-83
2021/06/04 03:23:13;;;;;;;1.45;0.95;;;11.80;99.90;;;;;;5095384;28;20052;-83
2021/06/04 03:25:41;;;;;;;3.58;1.05;;;11.80;99.90;;;;;;5095441;28;20058;-83
2021/06/04 03:28:09;;;;;;;4.10;1.13;;;11.80;99.90;;;;;;5095509;28;20055;-83
2021/06/04 03:30:38;;;;;;;4.57;1.08;;;11.80;99.90;;;;;;5095530;28;20044;-83
2021/06/04 03:33:05;;;;;;;2.08;0.98;;;11.70;99.90;;;;;;5095398;28;20044;-84
2021/06/04 03:35:31;;;;;;;2.47;1.08;;;11.70;99.90;;;;;;5094904;28;20382;-83
2021/06/04 03:37:58;;;;;;;4.40;0.90;;;11.70;99.90;;;;;;5094978;28;20433;-83
2021/06/04 03:40:27;;;;;;;4.25;1.25;;;11.60;99.90;;;;;;5095344;28;20365;-83
2021/06/04 03:42:54;;;;;;;5.38;1.70;;;11.60;99.90;;;;;;5095516;28;20446;-84
2021/06/04 03:45:26;;;;;;;1.42;1.00;;;11.60;99.90;;;;;;5095259;28;20044;-83
2021/06/04 03:47:53;;;;;;;8.13;1.23;;;11.60;99.90;;;;;;5095090;28;20059;-84
2021/06/04 03:50:19;;;;;;;2.65;1.00;;;11.50;99.90;;;;;;5095538;28;20337;-84
2021/06/04 03:52:46;;;;;;;2.70;1.20;;;11.50;99.90;;;;;;5095359;28;20044;-84
2021/06/04 03:55:14;;;;;;;6.30;1.27;;;11.40;99.90;;;;;;5095031;28;20048;-84
2021/06/04 03:57:42;;;;;;;5.40;0.85;;;11.40;99.90;;;;;;5094849;28;20060;-83
2021/06/04 04:00:10;;;;;;;2.38;0.75;;;11.30;99.90;;;;;;5095042;28;20055;-83
2021/06/04 04:02:37;;;;;;;5.40;1.45;;;11.30;99.90;;;;;;5094971;28;20054;-84
2021/06/04 04:05:04;;;;;;;0.88;0.82;;;11.30;99.90;;;;;;5095068;28;20437;-83
2021/06/04 04:07:31;;;;;;;3.15;0.93;;;11.20;99.90;;;;;;5095115;28;20047;-83
2021/06/04 04:09:58;;;;;;;4.63;1.55;;;11.20;99.90;;;;;;5094988;28;20062;-84
2021/06/04 04:12:25;;;;;;;6.05;1.08;;;11.20;99.90;;;;;;5094808;28;20460;-84
2021/06/04 04:14:53;;;;;;;6.00;1.20;;;11.20;99.90;;;;;;5094819;28;20044;-83
2021/06/04 04:17:21;;;;;;;2.58;1.08;;;11.20;99.90;;;;;;5094850;28;20054;-84
2021/06/04 04:19:47;;;;;;;1.67;1.13;;;11.20;99.90;;;;;;5095013;28;20056;-83
2021/06/04 04:22:14;;;;;;;1.73;1.08;;;11.20;99.90;;;;;;5094915;28;20055;-82
2021/06/04 04:24:40;;;;;;;3.13;0.75;;;11.20;99.90;;;;;;5094973;28;20048;-83
2021/06/04 04:27:07;;;;;;;2.42;0.60;;;11.20;99.90;;;;;;5094715;28;20452;-84
2021/06/04 04:29:34;;;;;;;3.08;1.02;;;11.10;99.90;;;;;;5094758;28;20048;-83
2021/06/04 04:32:05;;;;;;;4.95;1.38;;;11.10;99.90;;;;;;5094649;28;20087;-83
2021/06/04 04:34:32;;;;;;;2.20;1.20;;;11.10;99.90;;;;;;5094633;28;20048;-83
2021/06/04 04:37:00;;;;;;;4.72;1.10;;;11.10;99.90;;;;;;5094736;28;20052;-83
2021/06/04 04:39:28;;;;;;;4.43;1.40;;;11.10;99.90;;;;;;5094650;28;20168;-83
2021/06/04 04:41:55;;;;;;;5.32;1.55;;;11.10;99.90;;;;;;5094734;28;20048;-83
2021/06/04 04:44:24;;;;;;;7.05;1.20;;;11.10;99.90;;;;;;5094350;28;20048;-83
2021/06/04 04:46:50;;;;;;;1.95;1.10;;;11.00;99.90;;;;;;5094557;28;20051;-83
2021/06/04 04:49:18;;;;;;;1.45;1.13;;;11.00;99.90;;;;;;5098528;28;20052;-82
2021/06/04 04:51:45;;;;;;;4.05;1.20;;;11.00;99.90;;;;;;5098660;28;20059;-83
2021/06/04 04:54:13;;;;;;;1.88;0.90;;;11.00;99.90;;;;;;5098527;28;20081;-83
2021/06/04 04:56:40;;;;;;;2.42;1.05;;;11.00;99.90;;;;;;5098311;28;20185;-83
2021/06/04 04:59:09;;;;;;;1.50;1.00;;;11.00;99.90;;;;;;5098126;28;20058;-83
2021/06/04 05:01:35;;;;;;;1.48;0.88;;;11.10;99.90;;;;;;5098508;28;20048;-83
2021/06/04 05:04:03;;;;;;;4.57;1.10;;;11.10;99.90;;;;;;5098285;28;20055;-83
2021/06/04 05:06:31;;;;;;;3.42;0.98;;;11.20;99.90;;;;;;5098236;28;20048;-83
2021/06/04 05:08:57;;;;;;;3.90;0.88;;;11.30;99.90;;;;;;5098173;28;20052;-81
2021/06/04 05:11:24;;;;;;;2.95;0.90;;;11.30;99.90;;;;;;5098222;28;20062;-83
2021/06/04 05:13:50;;;;;;;2.20;1.08;;;11.40;99.90;;;;;;5098094;28;20051;-83
2021/06/04 05:16:17;;;;;;;2.13;1.27;;;11.50;99.90;;;;;;5098235;28;20043;-83
2021/06/04 05:18:44;;;;;;;5.05;1.15;;;11.50;99.90;;;;;;5098343;28;20052;-83
2021/06/04 05:21:12;;;;;;;1.88;0.95;;;11.60;99.90;;;;;;5098004;28;20059;-83
2021/06/04 05:23:40;;;;;;;3.28;1.10;;;11.70;99.90;;;;;;5097820;28;20104;-83
2021/06/04 05:26:07;;;;;;;4.95;1.40;;;11.80;99.90;;;;;;5097860;28;20459;-83
2021/06/04 05:28:34;;;;;;;2.88;1.63;;;11.90;99.90;;;;;;5098037;28;20433;-83
2021/06/04 05:31:02;;;;;;;4.22;0.85;;;12.00;99.90;;;;;;5097831;28;20051;-83
2021/06/04 05:33:33;;;;;;;6.18;0.98;;;12.10;99.90;;;;;;5097942;28;20063;-83
2021/06/04 05:35:59;;;;;;;2.60;1.20;;;12.10;99.90;;;;;;5097651;28;20044;-83
2021/06/04 05:38:26;;;;;;;1.80;1.30;;;12.20;99.90;;;;;;5097585;28;20052;-84
2021/06/04 05:40:55;;;;;;;2.15;0.93;;;12.20;99.90;;;;;;5097550;28;20048;-83
2021/06/04 05:43:26;;;;;;;4.20;1.85;;;12.30;99.90;;;;;;5097769;28;20058;-83
2021/06/04 05:45:53;;;;;;;2.88;1.25;;;12.30;99.90;;;;;;5097535;28;20044;-83
2021/06/04 05:48:20;;;;;;;1.55;1.00;;;12.40;99.90;;;;;;5097605;28;20051;-83
2021/06/04 05:50:48;;;;;;;4.90;1.05;;;12.40;99.90;;;;;;5097491;28;20047;-83
2021/06/04 05:53:16;;;;;;;2.67;0.80;;;12.50;99.90;;;;;;5097256;28;20085;-84
2021/06/04 05:55:43;;;;;;;4.28;1.42;;;12.60;99.90;;;;;;5097509;28;20054;-83
2021/06/04 05:58:12;;;;;;;3.10;0.90;;;12.60;99.90;;;;;;5097234;28;20495;-83
2021/06/04 06:00:42;;;;;;;6.60;1.42;;;12.70;99.90;;;;;;5096454;28;20060;-83
2021/06/04 06:03:08;;;;;;;1.17;0.60;;;12.80;99.90;;;;;;5097182;28;20052;-83
2021/06/04 06:05:35;;;;;;;1.90;0.82;;;13.00;99.90;;;;;;5097270;28;20044;-83
2021/06/04 06:08:02;;;;;;;3.85;0.80;;;13.10;99.90;;;;;;5097103;28;20056;-83
2021/06/04 06:10:28;;;;;;;4.28;0.93;;;13.20;99.90;;;;;;5096969;28;20055;-83
2021/06/04 06:12:55;;;;;;;2.55;0.50;;;13.30;99.90;;;;;;5097215;28;20055;-82
2021/06/04 06:15:24;;;;;;;2.75;0.40;;;13.40;99.90;;;;;;5097018;28;20044;-83
2021/06/04 06:17:51;;;;;;;1.20;0.50;;;13.50;99.90;;;;;;5096959;28;20481;-83
2021/06/04 06:20:18;;;;;;;4.22;0.95;;;13.70;99.90;;;;;;5096785;28;20063;-83
2021/06/04 06:22:45;;;;;;;0.98;0.75;;;13.80;99.90;;;;;;5096862;28;20063;-82
2021/06/04 06:25:12;;;;;;;4.15;0.70;;;14.00;99.90;;;;;;5096828;28;20129;-82
2021/06/04 06:27:39;;;;;;;1.98;0.60;;;14.00;99.90;;;;;;5096616;28;20044;-82
2021/06/04 06:30:07;;;;;;;1.75;0.90;;;14.10;99.90;;;;;;5096797;28;20052;-82
2021/06/04 06:32:35;;;;;;;0.65;0.40;;;14.10;99.90;;;;;;5096709;28;20132;-82
2021/06/04 06:35:02;;;;;;;3.28;1.33;;;14.10;99.90;;;;;;5096557;28;20040;-82
2021/06/04 06:37:28;;;;;;;1.52;0.45;;;14.20;99.90;;;;;;5096482;28;20608;-83
2021/06/04 06:39:55;;;;;;;2.90;0.63;;;14.20;99.90;;;;;;5096564;28;20372;-82
2021/06/04 06:42:22;;;;;;;1.55;0.60;;;14.30;99.90;;;;;;5096689;28;20048;-82
2021/06/04 06:44:48;;;;;;;1.48;0.52;;;14.50;99.90;;;;;;5096489;28;20056;-83
2021/06/04 06:47:15;;;;;;;1.58;0.70;;;14.80;99.90;;;;;;5096518;28;20051;-83
2021/06/04 06:49:43;;;;;;;2.92;0.50;;;15.50;99.90;;;;;;5096432;28;20048;-83
2021/06/04 06:52:09;;;;;;;2.58;0.40;;;15.90;99.90;;;;;;5096164;28;20055;-82
2021/06/04 06:54:36;;;;;;;2.65;0.50;;;15.90;99.90;;;;;;5096221;28;20515;-83
2021/06/04 06:57:03;;;;;;;0.52;0.30;;;15.90;99.90;;;;;;5095996;28;20062;-82
2021/06/04 06:59:30;;;;;;;1.73;0.60;;;16.10;99.90;;;;;;5096276;28;20044;-82
2021/06/04 07:01:57;;;;;;;0.40;0.20;;;16.10;99.90;;;;;;5096101;28;20044;-82
2021/06/04 07:04:23;;;;;;;1.80;0.45;;;16.40;99.90;;;;;;5095931;28;20048;-82
2021/06/04 07:06:51;;;;;;;4.70;1.05;;;17.00;99.90;;;;;;5096287;28;20056;-82
2021/06/04 07:09:18;;;;;;;0.65;0.20;;;18.30;99.90;;;;;;5096124;28;20062;-82
2021/06/04 07:11:49;;;;;;;3.20;0.70;;;19.90;94.10;;;;;;5095713;28;20055;-82
2021/06/04 07:14:16;;;;;;;3.05;0.30;;;20.40;96.00;;;;;;5095800;28;20059;-82
2021/06/04 07:16:43;;;;;;;1.50;0.52;;;20.40;79.80;;;;;;5095811;28;20052;-82
2021/06/04 07:19:09;;;;;;;1.02;0.43;;;21.10;75.70;;;;;;5095869;28;20436;-82
2021/06/04 07:21:36;;;;;;;1.10;0.30;;;21.10;72.00;;;;;;5095811;28;20052;-82
2021/06/04 07:24:12;;;;;;;1.00;0.30;;;21.40;85.00;;;;;;5095735;28;20357;-82
2021/06/04 07:26:39;;;;;;;2.63;0.40;;;21.80;76.70;;;;;;5095645;28;20059;-83
2021/06/04 07:29:06;;;;;;;1.27;0.25;;;22.30;70.70;;;;;;5095613;28;20059;-82
2021/06/04 07:31:33;;;;;;;1.73;0.30;;;23.00;65.70;;;;;;5095577;28;20105;-82
2021/06/04 07:34:02;;;;;;;2.47;0.50;;;23.20;64.10;;;;;;5095391;28;20040;-82
2021/06/04 07:36:30;;;;;;;1.75;0.20;;;22.50;63.10;;;;;;5095666;28;20083;-82
2021/06/04 07:38:57;;;;;;;2.45;0.70;;;21.80;66.90;;;;;;5095459;28;20043;-82
2021/06/04 07:41:25;;;;;;;2.28;0.30;;;21.30;67.90;;;;;;5095425;28;20449;-82
2021/06/04 07:43:52;;;;;;;0.88;0.28;;;21.30;68.40;;;;;;5095262;28;20371;-82
2021/06/04 07:46:20;;;;;;;2.28;0.50;;;21.40;72.30;;;;;;5095363;28;20116;-82
2021/06/04 07:48:47;;;;;;;4.57;0.68;;;21.50;72.30;;;;;;5095300;28;20060;-81
2021/06/04 07:51:15;;;;;;;2.15;0.30;;;21.50;70.20;;;;;;5095356;28;20418;-82
2021/06/04 07:53:41;;;;;;;1.27;0.38;;;21.00;67.70;;;;;;5095330;28;20590;-82
2021/06/04 07:56:09;;;;;;;1.20;0.20;;;20.30;70.60;;;;;;5095186;28;20067;-82
2021/06/04 07:58:37;;;;;;;0.93;0.20;;;20.20;73.40;;;;;;5094965;28;20051;-82
2021/06/04 08:01:03;;;;;;;3.28;0.60;;;20.20;74.00;;;;;;5095077;28;20058;-82
2021/06/04 08:03:30;;;;;;;4.50;0.60;;;20.10;74.40;;;;;;5094854;28;20052;-81
2021/06/04 08:05:57;;;;;;;1.45;0.30;;;19.80;77.50;;;;;;5095005;28;20097;-82
2021/06/04 08:08:24;;;;;;;0.40;0.20;;;19.50;79.90;;;;;;5094954;28;20048;-81
2021/06/04 08:10:51;;;;;;;0.57;0.38;;;19.40;84.90;;;;;;5095090;28;20048;-82
2021/06/04 08:13:19;;;;;;;1.00;0.30;;;19.70;84.20;;;;;;5094860;28;20456;-82
2021/06/04 08:15:49;;;;;;;5.85;0.65;;;20.50;80.80;;;;;;5094907;28;20372;-82
2021/06/04 08:18:16;;;;;;;3.00;0.52;;;22.10;74.30;;;;;;5094787;28;20055;-82
2021/06/04 08:20:43;;;;;;;0.70;0.20;;;22.80;63.10;;;;;;5094887;28;20113;-82
2021/06/04 08:23:11;;;;;;;4.97;0.40;;;22.70;61.50;;;;;;5094381;28;20052;-83
2021/06/04 08:25:39;;;;;;;0.30;0.17;;;22.20;63.40;;;;;;5094689;28;20375;-82
2021/06/04 08:28:05;;;;;;;0.70;0.40;;;21.70;66.20;;;;;;5094672;28;20133;-82
2021/06/04 08:30:32;;;;;;;2.35;0.95;;;21.00;69.20;;;;;;5094751;28;20054;-81
2021/06/04 08:33:01;;;;;;;1.70;0.32;;;20.30;72.90;;;;;;5094953;28;20052;-81
2021/06/04 08:35:29;;;;;;;1.65;0.30;;;19.70;77.00;;;;;;5094701;28;20089;-81
2021/06/04 08:37:55;;;;;;;3.88;0.85;;;19.30;81.50;;;;;;5094696;28;20137;-80
2021/06/04 08:40:25;;;;;;;0.98;0.43;;;18.80;88.00;;;;;;5094765;28;20044;-81
2021/06/04 08:42:58;;;;;;;0.70;0.30;;;18.10;92.40;;;;;;5094418;28;20051;-80
2021/06/04 08:45:32;;;;;;;1.88;0.68;;;17.60;93.70;;;;;;5094578;28;20040;-81
2021/06/04 08:48:03;;;;;;;;;;;17.30;96.00;;;;;;5095357;28;20059;-80
2021/06/04 08:50:34;;;;;;;4.05;0.50;;;17.10;98.90;;;;;;5094660;28;19931;-81
2021/06/04 08:53:01;;;;;;;0.80;0.32;;;16.90;99.90;;;;;;5094597;28;20084;-81
2021/06/04 08:55:32;;;;;;;1.80;0.40;;;16.70;99.90;;;;;;5094509;28;20048;-80
2021/06/04 08:58:04;;;;;;;3.63;0.50;;;16.70;99.40;;;;;;5094439;28;20052;-80
2021/06/04 09:00:33;;;;;;;2.75;0.40;;;16.70;99.90;;;;;;5094431;28;20062;-80
2021/06/04 09:03:03;;;;;;;0.73;0.30;;;16.60;99.90;;;;;;5094500;28;20048;-81
2021/06/04 09:05:32;;;;;;;0.90;0.50;;;16.50;99.90;;;;;;5094439;28;20062;-81
2021/06/04 09:07:59;;;;;;;1.50;1.15;;;16.50;99.90;;;;;;5093789;28;20052;-80
2021/06/04 09:10:31;;;;;;;0.82;0.43;;;16.60;99.90;;;;;;5094714;28;20052;-81
2021/06/04 09:13:03;;;;;;;1.08;0.40;;;16.60;99.90;;;;;;5094098;28;20048;-81
2021/06/04 09:15:33;;;;;;;1.00;0.50;;;16.50;99.90;;;;;;5094230;28;20044;-81
2021/06/04 09:18:02;;;;;;;1.50;0.20;;;16.70;99.90;;;;;;5094380;28;20055;-81
2021/06/04 09:20:32;;;;;;;1.30;0.35;;;16.70;99.90;;;;;;5094188;28;20495;-81
2021/06/04 09:23:03;;;;;;;3.08;1.25;;;16.60;99.60;;;;;;5094378;28;20052;-81
2021/06/04 09:25:33;;;;;;;0.40;0.20;;;16.60;99.90;;;;;;5094306;28;20107;-81
2021/06/04 09:28:28;;;;;;;2.28;0.40;;;16.50;99.90;;;;;;5094087;28;20380;-81
2021/06/04 09:30:57;;;;;;;0.90;0.50;;;16.50;99.90;;;;;;5091068;28;20079;-81
2021/06/04 09:33:28;;;;;;;0.75;0.40;;;16.60;99.90;;;;;;5093753;28;20074;-80
2021/06/04 09:36:00;;;;;;;1.38;0.40;;;16.60;99.90;;;;;;5096827;28;20044;-81
2021/06/04 09:38:28;;;;;;;4.78;0.70;;;16.70;99.90;;;;;;5097784;28;20051;-80
2021/06/04 09:40:55;;;;;;;3.08;0.40;;;16.80;99.60;;;;;;5097549;28;20048;-80
2021/06/04 09:43:23;;;;;;;0.88;0.30;;;16.80;99.90;;;;;;5097521;28;20048;-80
2021/06/04 09:45:57;;;;;;;0.73;0.50;;;17.00;99.90;;;;;;5097430;28;20040;-80
2021/06/04 09:48:37;;;;;;;1.27;0.35;;;17.10;99.90;;;;;;5097420;28;20056;-80
2021/06/04 09:51:09;;;;;;;1.75;0.45;;;17.20;98.80;;;;;;5097478;28;20444;-80
2021/06/04 09:53:35;;;;;;;1.45;0.52;;;17.10;99.90;;;;;;5097409;28;20077;-80
2021/06/04 09:56:24;;;;;;;0.60;0.35;;;16.90;99.70;;;;;;5097333;28;20380;-80
2021/06/04 09:58:52;;;;;;;2.25;1.25;;;16.80;99.70;;;;;;5097134;28;20110;-80
2021/06/04 10:01:18;;;;;;;1.55;0.43;;;16.80;99.90;;;;;;5097292;28;20390;-81
2021/06/04 10:03:51;;;;;;;2.30;0.50;;;16.70;98.50;;;;;;5097463;28;20074;-81
2021/06/04 10:06:43;;;;;;;2.00;0.70;;;16.50;99.80;;;;;;5097299;28;20196;-81
2021/06/04 10:09:28;;;;;;;0.82;0.40;;;16.40;99.90;;;;;;5097260;28;20120;-81
2021/06/04 10:11:56;;;;;;;;;;;16.40;99.90;;;;;;5097510;28;20087;-81
2021/06/04 10:14:29;;;;;;;1.80;0.60;;;16.40;99.90;;;;;;5097013;28;20011;-81
2021/06/04 10:17:02;;;;;;;1.50;0.45;;;16.50;99.90;;;;;;5096915;28;20066;-81
2021/06/04 10:19:40;;;;;;;0.60;0.55;;;16.50;99.90;;;;;;5096906;28;20472;-81
2021/06/04 10:22:24;;;;;;;1.85;0.45;;;16.70;99.90;;;;;;5097035;28;20074;-81
2021/06/04 10:24:51;;;;;;;2.78;0.75;;;16.80;99.90;;;;;;5096807;28;20043;-81
2021/06/04 10:27:20;;;;;;;0.77;0.43;;;17.00;99.90;;;;;;5096746;28;20044;-81
2021/06/04 10:29:58;;;;;;;2.00;0.50;;;17.00;99.90;;;;;;5095175;28;20452;-81
2021/06/04 10:32:24;;;;;;;1.75;0.50;;;17.10;99.90;;;;;;5096635;28;20048;-81
2021/06/04 10:35:10;;;;;;;1.80;0.50;;;17.10;97.00;;;;;;5096635;28;20448;-81
2021/06/04 10:37:39;;;;;;;7.95;2.65;;;17.10;98.90;;;;;;5096565;28;20055;-81
2021/06/04 10:40:13;;;;;;;3.80;1.65;;;17.10;98.10;;;;;;5096685;28;20056;-81
2021/06/04 10:42:52;;;;;;;2.67;0.68;;;17.00;99.10;;;;;;5096448;28;20055;-81
2021/06/04 10:45:20;;;;;;;1.08;0.47;;;16.90;97.70;;;;;;5095989;28;20543;-81
2021/06/04 10:47:59;;;;;;;0.90;0.40;;;16.90;98.30;;;;;;5096394;28;20050;-81
2021/06/04 10:50:29;;;;;;;2.67;0.50;;;16.90;97.50;;;;;;5096746;28;20066;-81
2021/06/04 10:53:05;;;;;;;1.63;0.68;;;17.00;98.90;;;;;;5096382;28;20052;-81
2021/06/04 10:55:35;;;;;;;5.03;0.40;;;17.10;98.10;;;;;;5096299;28;20112;-81
2021/06/04 10:58:09;;;;;;;1.50;0.38;;;17.20;96.20;;;;;;5095855;28;20048;-81
2021/06/04 11:00:40;;;;;;;5.25;0.43;;;17.10;95.40;;;;;;5096074;28;20055;-80
2021/06/04 11:03:09;;;;;;;1.45;0.50;;;17.10;98.00;;;;;;5096191;28;20048;-81
2021/06/04 11:05:50;;;;;;;2.15;0.47;;;17.10;98.70;;;;;;5096168;28;20134;-80
2021/06/04 11:08:38;;;;;;;1.17;0.30;;;17.20;97.40;;;;;;5096055;28;20066;-80
2021/06/04 11:11:08;;;;;;;2.67;0.75;;;17.20;93.90;;;;;;5095886;28;20390;-80
2021/06/04 11:13:40;;;;;;;2.58;1.00;;;17.20;96.60;;;;;;5095713;28;20120;-80
2021/06/04 11:16:12;;;;;;;2.30;0.70;;;17.20;98.10;;;;;;5095863;28;20055;-80
2021/06/04 11:18:41;;;;;;;1.95;0.50;;;17.20;92.20;;;;;;5095832;28;20047;-80
2021/06/04 11:21:21;;;;;;;1.42;0.40;;;17.10;94.80;;;;;;5095727;28;20048;-80
2021/06/04 11:23:49;;;;;;;2.50;0.50;;;17.10;93.60;;;;;;5095628;28;20060;-80
2021/06/04 11:26:20;;;;;;;1.52;1.42;;;16.90;97.00;;;;;;5095759;28;20117;-80
2021/06/04 11:28:48;;;;;;;3.25;0.52;;;17.00;97.80;;;;;;5095779;28;20048;-81
2021/06/04 11:31:23;;;;;;;1.10;0.50;;;17.20;95.30;;;;;;5095589;28;20052;-80
2021/06/04 11:33:51;;;;;;;2.33;0.50;;;17.30;96.00;;;;;;5095587;28;20048;-80
2021/06/04 11:36:20;;;;;;;2.45;0.77;;;17.50;95.40;;;;;;5095544;28;20070;-80
2021/06/04 11:38:48;;;;;;;1.50;0.50;;;17.60;95.00;;;;;;5095413;28;20044;-80
2021/06/04 11:41:18;;;;;;;2.40;0.90;;;17.70;94.70;;;;;;5095476;28;20044;-80
2021/06/04 11:43:47;;;;;;;1.92;1.05;;;17.80;92.40;;;;;;5095347;28;20357;-80
2021/06/04 11:46:20;;;;;;;3.97;0.70;;;17.80;87.00;;;;;;5095265;28;20056;-80
2021/06/04 11:49:07;;;;;;;2.28;0.55;;;17.90;80.50;;;;;;5095118;28;20137;-80
2021/06/04 11:51:50;;;;;;;4.82;1.38;;;18.00;83.20;;;;;;5095239;28;20349;-79
2021/06/04 11:54:27;;;;;;;1.92;0.90;;;18.00;85.50;;;;;;5095134;28;20047;-80
2021/06/04 11:56:57;;;;;;;3.65;0.73;;;18.10;83.20;;;;;;5094551;28;20059;-80
2021/06/04 12:00:01;;;;;;;1.45;0.80;;;18.20;83.60;;;;;;5095218;28;20111;-80
2021/06/04 12:02:33;;;;;;;3.15;1.17;;;18.10;81.40;;;;;;4993905;28;20050;-80
2021/06/04 12:05:18;;;;;;;2.83;0.90;;;18.10;82.80;;;;;;4993904;28;20085;-80
2021/06/04 12:07:47;;;;;;;4.03;0.88;;;18.20;85.60;;;;;;4981926;28;20054;-80
2021/06/04 12:10:14;;;;;;;4.63;1.13;;;18.10;83.00;;;;;;4993834;28;20050;-80
2021/06/04 12:12:57;;;;;;;2.67;1.05;;;18.00;85.00;;;;;;4993739;28;20055;-80
2021/06/04 12:15:42;;;;;;;3.72;0.77;;;17.80;84.70;;;;;;4993978;28;20057;-80
2021/06/04 12:18:48;;;;;;;2.10;0.70;;;17.70;87.80;;;;;;4993548;28;20050;-80
2021/06/04 12:21:49;;;;;;;1.58;0.80;;;17.70;87.30;;;;;;4993630;28;20050;-80
2021/06/04 12:25:00;;;;;;;2.08;0.80;;;17.80;90.40;;;;;;4993426;28;20046;-80
2021/06/04 12:28:11;;;;;;;2.08;0.73;;;17.70;87.80;;;;;;4993646;28;20050;-80
2021/06/04 12:30:59;;;;;;;1.33;0.65;;;17.70;91.10;;;;;;4993493;28;20058;-80
2021/06/04 12:33:38;;;;;;;3.30;0.70;;;17.90;92.50;;;;;;5052687;28;20044;-80
2021/06/04 12:36:05;;;;;;;3.50;1.20;;;18.00;91.80;;;;;;5094727;28;20127;-80
2021/06/04 12:38:33;;;;;;;3.28;0.65;;;18.00;90.30;;;;;;5094557;28;20048;-80
2021/06/04 12:41:00;;;;;;;3.13;0.90;;;18.00;89.60;;;;;;5094516;28;20052;-80
2021/06/04 12:43:30;;;;;;;2.83;0.75;;;18.00;88.10;;;;;;5094684;28;20140;-80
2021/06/04 12:46:01;;;;;;;3.53;0.98;;;17.90;83.40;;;;;;5094578;28;20127;-80
2021/06/04 12:48:28;;;;;;;;;;;17.90;84.40;;;;;;5094955;28;20054;-81
2021/06/04 12:51:19;;;;;;;2.97;1.10;;;17.90;87.70;;;;;;5093294;28;20432;-80
2021/06/04 12:53:46;;;;;;;3.15;2.05;;;17.90;88.90;;;;;;5070304;28;20504;-81
2021/06/04 12:56:16;;;;;;;2.20;0.80;;;18.00;91.20;;;;;;5093673;28;20828;-81
2021/06/04 12:58:46;;;;;;;3.38;1.40;;;18.00;85.70;;;;;;5094374;28;20060;-81
2021/06/04 13:01:15;;;;;;;1.25;1.02;;;18.00;81.70;;;;;;5094491;28;20052;-80
2021/06/04 13:03:43;;;;;;;2.25;0.82;;;17.90;86.00;;;;;;5094309;28;20044;-81